Quenames — WTU9038 — position and weather

sailwx.info

Track history (hours):
 
Tides and Currents Weather Stations Pressure Air Temp Water Temp Dewpoint Dewpoint Depression Visibility Wind Speed Wind Dir Waves Ship Positions

Quenames

Owner: BOSTON MARINE TRANSPORT INC, Pelham, NH. More information available from US FCC via Universal Licensing System and Coast Guard Vessel Documentation Center.

Last reported at 2017-Jul-28 02:09 UTC. Time now 2017-Jul-28 08:41 UTC.
Position N 40°36' W 074°12'.

Length 23 m; draft 3 m.

Type: Tug. MMSI: 367022790.

Date/timePositionNaut miles runAvg speedWind from/ knotsBaromVisibWave heightAir tempDewpointWater temp
2017-Jul-28 02:09N 40°36' W 074°12'1 6.5
2017-Jul-28 02:00N 40°37' W 074°12'3 6.0
2017-Jul-28 01:28N 40°39' W 074°09'4 8.9
2017-Jul-28 01:00N 40°40' W 074°04'4 7.8
2017-Jul-28 00:30N 40°42' W 073°60'4 7.0
2017-Jul-28 00:00N 40°45' W 073°57'4 8.2
2017-Jul-27 23:29N 40°48' W 073°53'3 6.4
2017-Jul-27 23:00N 40°48' W 073°49'2 0.1
2017-Jul-26 15:54N 40°49' W 073°47'2 4.0
2017-Jul-26 15:23N 40°48' W 073°49'4 6.1
2017-Jul-26 14:47N 40°48' W 073°54'5 7.0
2017-Jul-26 14:00N 40°43' W 073°58'3 6.5
2017-Jul-26 13:30N 40°41' W 074°01'3 5.1
2017-Jul-26 13:00N 40°40' W 074°04'2 4.7
2017-Jul-26 12:30N 40°39' W 074°07'2 4.5
2017-Jul-26 12:00N 40°39' W 074°10'2 4.4
2017-Jul-26 11:30N 40°38' W 074°12'5 0.3
2017-Jul-25 20:44N 40°33' W 074°15'0 0.0
2017-Jul-25 19:50N 40°33' W 074°15'0 0.0
2017-Jul-24 23:48N 40°33' W 074°15'0 0.0
2017-Jul-23 12:02N 40°33' W 074°15'0 0.0
2017-Jul-23 11:47N 40°33' W 074°15'0 0.0
2017-Jul-23 11:30N 40°33' W 074°15'0 0.0
2017-Jul-23 08:11N 40°33' W 074°15'0 0.0
2017-Jul-23 07:57N 40°33' W 074°15'0 0.0
2017-Jul-23 03:26N 40°33' W 074°15'3 2.5
2017-Jul-23 02:05N 40°36' W 074°12'1 7.1
2017-Jul-23 01:59N 40°36' W 074°12'3 6.0
2017-Jul-23 01:29N 40°39' W 074°10'3 7.1
2017-Jul-23 01:00N 40°39' W 074°05'0 0.9
2017-Jul-23 00:30N 40°39' W 074°05'0 0.0
2017-Jul-23 00:00N 40°39' W 074°05'0 0.0
2017-Jul-22 23:30N 40°39' W 074°05'0 0.0
2017-Jul-22 23:00N 40°39' W 074°05'0 0.0
2017-Jul-22 22:30N 40°39' W 074°05'0 0.0
2017-Jul-22 22:00N 40°39' W 074°05'0 0.0
2017-Jul-22 21:30N 40°39' W 074°05'0 0.0
2017-Jul-22 21:00N 40°39' W 074°05'0 0.0
2017-Jul-22 20:30N 40°39' W 074°05'0 0.0
2017-Jul-22 20:00N 40°39' W 074°05'0 0.0
2017-Jul-22 19:30N 40°39' W 074°05'0 0.0
2017-Jul-22 19:00N 40°39' W 074°05'0 0.0
2017-Jul-22 18:30N 40°39' W 074°05'0 0.0
2017-Jul-22 18:00N 40°39' W 074°05'0 0.0
2017-Jul-22 17:30N 40°39' W 074°05'0 0.0
2017-Jul-22 17:00N 40°39' W 074°05'0 0.0
2017-Jul-22 16:30N 40°39' W 074°05'0 0.0
2017-Jul-22 16:00N 40°39' W 074°05'0 0.0
2017-Jul-22 15:30N 40°39' W 074°05'0 0.0
2017-Jul-22 15:00N 40°39' W 074°05'0 0.0
2017-Jul-22 14:00N 40°39' W 074°05'0 0.0
2017-Jul-22 13:30N 40°39' W 074°05'0 0.0
2017-Jul-22 13:00N 40°39' W 074°05'0 0.0
2017-Jul-22 12:30N 40°39' W 074°05'0 0.0
2017-Jul-22 12:00N 40°39' W 074°05'0 0.0
2017-Jul-22 11:30N 40°39' W 074°05'0 0.0
2017-Jul-22 11:00N 40°39' W 074°05'0 0.0
2017-Jul-22 10:30N 40°39' W 074°05'0 0.0
2017-Jul-22 10:00N 40°39' W 074°05'0 0.0
2017-Jul-22 09:30N 40°39' W 074°05'0 0.0
2017-Jul-22 09:00N 40°39' W 074°05'0 0.0
2017-Jul-22 08:30N 40°39' W 074°05'0 0.0
2017-Jul-22 08:00N 40°39' W 074°05'0 0.0
2017-Jul-22 07:30N 40°39' W 074°05'0 0.0
2017-Jul-22 07:00N 40°39' W 074°05'0 0.0
2017-Jul-22 06:30N 40°39' W 074°05'1 1.3
2017-Jul-22 06:00N 40°39' W 074°04'1 2.3
2017-Jul-22 05:30N 40°39' W 074°06'1 1.9
2017-Jul-22 05:00N 40°39' W 074°07'0 0.0
2017-Jul-22 04:30N 40°39' W 074°07'0 0.0
2017-Jul-22 04:00N 40°39' W 074°07'0 0.0
2017-Jul-22 03:30N 40°39' W 074°07'0 0.0
2017-Jul-22 03:00N 40°39' W 074°07'0 0.0
2017-Jul-22 02:30N 40°39' W 074°07'0 0.0
2017-Jul-22 02:00N 40°39' W 074°07'0 0.0
2017-Jul-22 01:30N 40°39' W 074°07'0 0.0
2017-Jul-22 01:00N 40°39' W 074°07'0 0.0
2017-Jul-22 00:30N 40°39' W 074°07'0 0.0
2017-Jul-22 00:00N 40°39' W 074°07'0 0.0
2017-Jul-21 23:30N 40°39' W 074°07'0 0.0
2017-Jul-21 23:00N 40°39' W 074°07'0 0.0
2017-Jul-21 22:30N 40°39' W 074°07'0 0.0
2017-Jul-21 22:00N 40°39' W 074°07'0 0.0
2017-Jul-21 21:29N 40°39' W 074°07'0 0.0
2017-Jul-21 21:00N 40°39' W 074°07'0 0.0
2017-Jul-21 20:30N 40°39' W 074°07'0 0.0
2017-Jul-21 20:00N 40°39' W 074°07'0 0.0
2017-Jul-21 19:30N 40°39' W 074°07'0 0.0
2017-Jul-21 19:00N 40°39' W 074°07'0 0.0
2017-Jul-21 18:30N 40°39' W 074°07'0 0.0
2017-Jul-21 18:00N 40°39' W 074°07'0 0.6
2017-Jul-21 17:30N 40°39' W 074°07'0 0.7
2017-Jul-21 17:00N 40°39' W 074°08'2 3.8
2017-Jul-21 16:30N 40°39' W 074°10'3 5.4
2017-Jul-21 15:54N 40°36' W 074°12'4 5.8
2017-Jul-21 15:13N 40°33' W 074°15'0 1.2
2017-Jul-21 14:52N 40°33' W 074°15'1 0.0
2017-Jul-20 11:34N 40°32' W 074°15'1 5.2
2017-Jul-20 11:27N 40°33' W 074°15'0 0.5
2017-Jul-20 11:00N 40°33' W 074°15'4 5.4
2017-Jul-20 10:20N 40°36' W 074°12'2 6.1
2017-Jul-20 10:00N 40°38' W 074°12'2 3.5
2017-Jul-20 09:29N 40°39' W 074°10'3 5.9
2017-Jul-20 09:00N 40°39' W 074°06'0 0.0
2017-Jul-20 08:30N 40°39' W 074°06'0 0.0
2017-Jul-20 08:00N 40°39' W 074°06'0 0.0
2017-Jul-20 07:30N 40°39' W 074°06'0 0.0
2017-Jul-20 07:00N 40°39' W 074°06'0 0.0
2017-Jul-20 06:30N 40°39' W 074°06'0 0.0
2017-Jul-20 06:00N 40°39' W 074°06'0 0.0
2017-Jul-20 05:30N 40°39' W 074°06'0 0.0
2017-Jul-20 05:00N 40°39' W 074°06'0 0.0
2017-Jul-20 04:30N 40°39' W 074°06'0 0.0
2017-Jul-20 04:00N 40°39' W 074°06'0 0.0
2017-Jul-20 03:30N 40°39' W 074°06'0 0.0
2017-Jul-20 03:00N 40°39' W 074°06'0 0.0
2017-Jul-20 02:30N 40°39' W 074°06'0 0.0
2017-Jul-20 02:00N 40°39' W 074°06'0 0.0
2017-Jul-20 01:30N 40°39' W 074°06'0 0.0
2017-Jul-20 01:00N 40°39' W 074°06'0 0.0
2017-Jul-20 00:30N 40°39' W 074°06'0 0.0
2017-Jul-20 00:00N 40°39' W 074°06'0 0.0
2017-Jul-19 23:30N 40°39' W 074°06'0 0.0
2017-Jul-19 23:00N 40°39' W 074°06'0 0.0
2017-Jul-19 22:30N 40°39' W 074°06'0 0.0
2017-Jul-19 22:00N 40°39' W 074°06'0 0.0
2017-Jul-19 21:30N 40°39' W 074°06'0 0.0
2017-Jul-19 21:00N 40°39' W 074°06'0 0.0
2017-Jul-19 20:30N 40°39' W 074°06'0 0.0
2017-Jul-19 20:00N 40°39' W 074°06'0 0.0
2017-Jul-19 19:30N 40°39' W 074°06'0 0.0
2017-Jul-19 19:00N 40°39' W 074°06'0 0.0
2017-Jul-19 18:30N 40°39' W 074°06'0 0.0
2017-Jul-19 18:00N 40°39' W 074°06'0 0.1
2017-Jul-19 16:20N 40°39' W 074°07'0 0.4
2017-Jul-19 16:00N 40°39' W 074°06'0 0.7
2017-Jul-19 15:29N 40°39' W 074°07'3 5.8
2017-Jul-19 14:59N 40°39' W 074°11'3 0.8
2017-Jul-19 10:45N 40°36' W 074°12'2 8.9
2017-Jul-19 10:30N 40°38' W 074°12'4 7.3
2017-Jul-19 10:00N 40°39' W 074°07'0 0.7
2017-Jul-19 09:30N 40°39' W 074°07'0 0.0
2017-Jul-19 09:00N 40°39' W 074°07'0 0.0
2017-Jul-19 08:30N 40°39' W 074°07'0 0.0
2017-Jul-19 08:00N 40°39' W 074°07'0 0.0
2017-Jul-19 07:30N 40°39' W 074°07'0 0.0
2017-Jul-19 07:00N 40°39' W 074°07'0 0.0
2017-Jul-19 06:30N 40°39' W 074°07'0 0.0
2017-Jul-19 06:00N 40°39' W 074°07'0 0.0
2017-Jul-19 05:30N 40°39' W 074°07'0 0.0
2017-Jul-19 05:00N 40°39' W 074°07'0 0.0
2017-Jul-19 04:31N 40°39' W 074°07'0 0.0
2017-Jul-19 04:00N 40°39' W 074°07'0 0.0
2017-Jul-19 03:30N 40°39' W 074°07'2 3.1
2017-Jul-19 03:00N 40°39' W 074°05'2 3.5
2017-Jul-19 02:30N 40°39' W 074°03'0 0.1
2017-Jul-19 02:00N 40°39' W 074°03'0 0.0
2017-Jul-19 01:30N 40°39' W 074°03'0 0.1
2017-Jul-19 01:00N 40°39' W 074°03'0 0.2
2017-Jul-19 00:30N 40°39' W 074°03'0 0.1
2017-Jul-19 00:00N 40°39' W 074°03'0 0.0
2017-Jul-18 23:30N 40°39' W 074°03'0 0.1
2017-Jul-18 23:00N 40°39' W 074°03'0 0.1
2017-Jul-18 22:30N 40°39' W 074°03'3 5.6
2017-Jul-18 22:00N 40°36' W 074°02'4 7.0
2017-Jul-18 21:30N 40°34' W 073°58'11 0.9
2017-Jul-18 09:07N 40°38' W 073°45'1 3.8
2017-Jul-18 08:59N 40°38' W 073°46'3 5.8
2017-Jul-18 08:30N 40°36' W 073°48'2 4.1
2017-Jul-18 07:59N 40°35' W 073°51'3 6.1
2017-Jul-18 07:30N 40°34' W 073°55'3 6.3
2017-Jul-18 06:59N 40°34' W 073°59'2 4.7
2017-Jul-18 06:30N 40°35' W 074°01'0 0.8
2017-Jul-18 06:00N 40°36' W 074°01'0 0.0
2017-Jul-18 05:30N 40°36' W 074°01'0 0.0
2017-Jul-18 05:00N 40°36' W 074°01'0 0.1
2017-Jul-18 04:29N 40°36' W 074°01'0 0.2
2017-Jul-18 04:00N 40°35' W 074°01'0 0.0
2017-Jul-18 03:30N 40°35' W 074°01'0 0.0
2017-Jul-18 03:00N 40°35' W 074°01'0 0.0
2017-Jul-18 02:29N 40°35' W 074°01'  
Track history (hours):
 
Tides and Currents Weather Stations Pressure Air Temp Water Temp Dewpoint Dewpoint Depression Visibility Wind Speed Wind Dir Waves Ship Positions

Quenames

Owner: BOSTON MARINE TRANSPORT INC, Pelham, NH. More information available from US FCC via Universal Licensing System and Coast Guard Vessel Documentation Center.

Last reported at 2017-Jul-28 02:09 UTC. Time now 2017-Jul-28 08:41 UTC.
Position N 40°36' W 074°12'.

Length 23 m; draft 3 m.

Type: Tug. MMSI: 367022790.

Date/timePositionNaut miles runAvg speedWind from/ knotsBaromVisibWave heightAir tempDewpointWater temp
2017-Jul-28 02:09N 40°36' W 074°12'1 6.5
2017-Jul-28 02:00N 40°37' W 074°12'3 6.0
2017-Jul-28 01:28N 40°39' W 074°09'4 8.9
2017-Jul-28 01:00N 40°40' W 074°04'4 7.8
2017-Jul-28 00:30N 40°42' W 073°60'4 7.0
2017-Jul-28 00:00N 40°45' W 073°57'4 8.2
2017-Jul-27 23:29N 40°48' W 073°53'3 6.4
2017-Jul-27 23:00N 40°48' W 073°49'2 0.1
2017-Jul-26 15:54N 40°49' W 073°47'2 4.0
2017-Jul-26 15:23N 40°48' W 073°49'4 6.1
2017-Jul-26 14:47N 40°48' W 073°54'5 7.0
2017-Jul-26 14:00N 40°43' W 073°58'3 6.5
2017-Jul-26 13:30N 40°41' W 074°01'3 5.1
2017-Jul-26 13:00N 40°40' W 074°04'2 4.7
2017-Jul-26 12:30N 40°39' W 074°07'2 4.5
2017-Jul-26 12:00N 40°39' W 074°10'2 4.4
2017-Jul-26 11:30N 40°38' W 074°12'5 0.3
2017-Jul-25 20:44N 40°33' W 074°15'0 0.0
2017-Jul-25 19:50N 40°33' W 074°15'0 0.0
2017-Jul-24 23:48N 40°33' W 074°15'0 0.0
2017-Jul-23 12:02N 40°33' W 074°15'0 0.0
2017-Jul-23 11:47N 40°33' W 074°15'0 0.0
2017-Jul-23 11:30N 40°33' W 074°15'0 0.0
2017-Jul-23 08:11N 40°33' W 074°15'0 0.0
2017-Jul-23 07:57N 40°33' W 074°15'0 0.0
2017-Jul-23 03:26N 40°33' W 074°15'3 2.5
2017-Jul-23 02:05N 40°36' W 074°12'1 7.1
2017-Jul-23 01:59N 40°36' W 074°12'3 6.0
2017-Jul-23 01:29N 40°39' W 074°10'3 7.1
2017-Jul-23 01:00N 40°39' W 074°05'0 0.9
2017-Jul-23 00:30N 40°39' W 074°05'0 0.0
2017-Jul-23 00:00N 40°39' W 074°05'0 0.0
2017-Jul-22 23:30N 40°39' W 074°05'0 0.0
2017-Jul-22 23:00N 40°39' W 074°05'0 0.0
2017-Jul-22 22:30N 40°39' W 074°05'0 0.0
2017-Jul-22 22:00N 40°39' W 074°05'0 0.0
2017-Jul-22 21:30N 40°39' W 074°05'0 0.0
2017-Jul-22 21:00N 40°39' W 074°05'0 0.0
2017-Jul-22 20:30N 40°39' W 074°05'0 0.0
2017-Jul-22 20:00N 40°39' W 074°05'0 0.0
2017-Jul-22 19:30N 40°39' W 074°05'0 0.0
2017-Jul-22 19:00N 40°39' W 074°05'0 0.0
2017-Jul-22 18:30N 40°39' W 074°05'0 0.0
2017-Jul-22 18:00N 40°39' W 074°05'0 0.0
2017-Jul-22 17:30N 40°39' W 074°05'0 0.0
2017-Jul-22 17:00N 40°39' W 074°05'0 0.0
2017-Jul-22 16:30N 40°39' W 074°05'0 0.0
2017-Jul-22 16:00N 40°39' W 074°05'0 0.0
2017-Jul-22 15:30N 40°39' W 074°05'0 0.0
2017-Jul-22 15:00N 40°39' W 074°05'0 0.0
2017-Jul-22 14:00N 40°39' W 074°05'0 0.0
2017-Jul-22 13:30N 40°39' W 074°05'0 0.0
2017-Jul-22 13:00N 40°39' W 074°05'0 0.0
2017-Jul-22 12:30N 40°39' W 074°05'0 0.0
2017-Jul-22 12:00N 40°39' W 074°05'0 0.0
2017-Jul-22 11:30N 40°39' W 074°05'0 0.0
2017-Jul-22 11:00N 40°39' W 074°05'0 0.0
2017-Jul-22 10:30N 40°39' W 074°05'0 0.0
2017-Jul-22 10:00N 40°39' W 074°05'0 0.0
2017-Jul-22 09:30N 40°39' W 074°05'0 0.0
2017-Jul-22 09:00N 40°39' W 074°05'0 0.0
2017-Jul-22 08:30N 40°39' W 074°05'0 0.0
2017-Jul-22 08:00N 40°39' W 074°05'0 0.0
2017-Jul-22 07:30N 40°39' W 074°05'0 0.0
2017-Jul-22 07:00N 40°39' W 074°05'0 0.0
2017-Jul-22 06:30N 40°39' W 074°05'1 1.3
2017-Jul-22 06:00N 40°39' W 074°04'1 2.3
2017-Jul-22 05:30N 40°39' W 074°06'1 1.9
2017-Jul-22 05:00N 40°39' W 074°07'0 0.0
2017-Jul-22 04:30N 40°39' W 074°07'0 0.0
2017-Jul-22 04:00N 40°39' W 074°07'0 0.0
2017-Jul-22 03:30N 40°39' W 074°07'0 0.0
2017-Jul-22 03:00N 40°39' W 074°07'0 0.0
2017-Jul-22 02:30N 40°39' W 074°07'0 0.0
2017-Jul-22 02:00N 40°39' W 074°07'0 0.0
2017-Jul-22 01:30N 40°39' W 074°07'0 0.0
2017-Jul-22 01:00N 40°39' W 074°07'0 0.0
2017-Jul-22 00:30N 40°39' W 074°07'0 0.0
2017-Jul-22 00:00N 40°39' W 074°07'0 0.0
2017-Jul-21 23:30N 40°39' W 074°07'0 0.0
2017-Jul-21 23:00N 40°39' W 074°07'0 0.0
2017-Jul-21 22:30N 40°39' W 074°07'0 0.0
2017-Jul-21 22:00N 40°39' W 074°07'0 0.0
2017-Jul-21 21:29N 40°39' W 074°07'0 0.0
2017-Jul-21 21:00N 40°39' W 074°07'0 0.0
2017-Jul-21 20:30N 40°39' W 074°07'0 0.0
2017-Jul-21 20:00N 40°39' W 074°07'0 0.0
2017-Jul-21 19:30N 40°39' W 074°07'0 0.0
2017-Jul-21 19:00N 40°39' W 074°07'0 0.0
2017-Jul-21 18:30N 40°39' W 074°07'0 0.0
2017-Jul-21 18:00N 40°39' W 074°07'0 0.6
2017-Jul-21 17:30N 40°39' W 074°07'0 0.7
2017-Jul-21 17:00N 40°39' W 074°08'2 3.8
2017-Jul-21 16:30N 40°39' W 074°10'3 5.4
2017-Jul-21 15:54N 40°36' W 074°12'4 5.8
2017-Jul-21 15:13N 40°33' W 074°15'0 1.2
2017-Jul-21 14:52N 40°33' W 074°15'1 0.0
2017-Jul-20 11:34N 40°32' W 074°15'1 5.2
2017-Jul-20 11:27N 40°33' W 074°15'0 0.5
2017-Jul-20 11:00N 40°33' W 074°15'4 5.4
2017-Jul-20 10:20N 40°36' W 074°12'2 6.1
2017-Jul-20 10:00N 40°38' W 074°12'2 3.5
2017-Jul-20 09:29N 40°39' W 074°10'3 5.9
2017-Jul-20 09:00N 40°39' W 074°06'0 0.0
2017-Jul-20 08:30N 40°39' W 074°06'0 0.0
2017-Jul-20 08:00N 40°39' W 074°06'0 0.0
2017-Jul-20 07:30N 40°39' W 074°06'0 0.0
2017-Jul-20 07:00N 40°39' W 074°06'0 0.0
2017-Jul-20 06:30N 40°39' W 074°06'0 0.0
2017-Jul-20 06:00N 40°39' W 074°06'0 0.0
2017-Jul-20 05:30N 40°39' W 074°06'0 0.0
2017-Jul-20 05:00N 40°39' W 074°06'0 0.0
2017-Jul-20 04:30N 40°39' W 074°06'0 0.0
2017-Jul-20 04:00N 40°39' W 074°06'0 0.0
2017-Jul-20 03:30N 40°39' W 074°06'0 0.0
2017-Jul-20 03:00N 40°39' W 074°06'0 0.0
2017-Jul-20 02:30N 40°39' W 074°06'0 0.0
2017-Jul-20 02:00N 40°39' W 074°06'0 0.0
2017-Jul-20 01:30N 40°39' W 074°06'0 0.0
2017-Jul-20 01:00N 40°39' W 074°06'0 0.0
2017-Jul-20 00:30N 40°39' W 074°06'0 0.0
2017-Jul-20 00:00N 40°39' W 074°06'0 0.0
2017-Jul-19 23:30N 40°39' W 074°06'0 0.0
2017-Jul-19 23:00N 40°39' W 074°06'0 0.0
2017-Jul-19 22:30N 40°39' W 074°06'0 0.0
2017-Jul-19 22:00N 40°39' W 074°06'0 0.0
2017-Jul-19 21:30N 40°39' W 074°06'0 0.0
2017-Jul-19 21:00N 40°39' W 074°06'0 0.0
2017-Jul-19 20:30N 40°39' W 074°06'0 0.0
2017-Jul-19 20:00N 40°39' W 074°06'0 0.0
2017-Jul-19 19:30N 40°39' W 074°06'0 0.0
2017-Jul-19 19:00N 40°39' W 074°06'0 0.0
2017-Jul-19 18:30N 40°39' W 074°06'0 0.0
2017-Jul-19 18:00N 40°39' W 074°06'0 0.1
2017-Jul-19 16:20N 40°39' W 074°07'0 0.4
2017-Jul-19 16:00N 40°39' W 074°06'0 0.7
2017-Jul-19 15:29N 40°39' W 074°07'3 5.8
2017-Jul-19 14:59N 40°39' W 074°11'3 0.8
2017-Jul-19 10:45N 40°36' W 074°12'2 8.9
2017-Jul-19 10:30N 40°38' W 074°12'4 7.3
2017-Jul-19 10:00N 40°39' W 074°07'0 0.7
2017-Jul-19 09:30N 40°39' W 074°07'0 0.0
2017-Jul-19 09:00N 40°39' W 074°07'0 0.0
2017-Jul-19 08:30N 40°39' W 074°07'0 0.0
2017-Jul-19 08:00N 40°39' W 074°07'0 0.0
2017-Jul-19 07:30N 40°39' W 074°07'0 0.0
2017-Jul-19 07:00N 40°39' W 074°07'0 0.0
2017-Jul-19 06:30N 40°39' W 074°07'0 0.0
2017-Jul-19 06:00N 40°39' W 074°07'0 0.0
2017-Jul-19 05:30N 40°39' W 074°07'0 0.0
2017-Jul-19 05:00N 40°39' W 074°07'0 0.0
2017-Jul-19 04:31N 40°39' W 074°07'0 0.0
2017-Jul-19 04:00N 40°39' W 074°07'0 0.0
2017-Jul-19 03:30N 40°39' W 074°07'2 3.1
2017-Jul-19 03:00N 40°39' W 074°05'2 3.5
2017-Jul-19 02:30N 40°39' W 074°03'0 0.1
2017-Jul-19 02:00N 40°39' W 074°03'0 0.0
2017-Jul-19 01:30N 40°39' W 074°03'0 0.1
2017-Jul-19 01:00N 40°39' W 074°03'0 0.2
2017-Jul-19 00:30N 40°39' W 074°03'0 0.1
2017-Jul-19 00:00N 40°39' W 074°03'0 0.0
2017-Jul-18 23:30N 40°39' W 074°03'0 0.1
2017-Jul-18 23:00N 40°39' W 074°03'0 0.1
2017-Jul-18 22:30N 40°39' W 074°03'3 5.6
2017-Jul-18 22:00N 40°36' W 074°02'4 7.0
2017-Jul-18 21:30N 40°34' W 073°58'11 0.9
2017-Jul-18 09:07N 40°38' W 073°45'1 3.8
2017-Jul-18 08:59N 40°38' W 073°46'3 5.8
2017-Jul-18 08:30N 40°36' W 073°48'2 4.1
2017-Jul-18 07:59N 40°35' W 073°51'3 6.1
2017-Jul-18 07:30N 40°34' W 073°55'3 6.3
2017-Jul-18 06:59N 40°34' W 073°59'2 4.7
2017-Jul-18 06:30N 40°35' W 074°01'0 0.8
2017-Jul-18 06:00N 40°36' W 074°01'0 0.0
2017-Jul-18 05:30N 40°36' W 074°01'0 0.0
2017-Jul-18 05:00N 40°36' W 074°01'0 0.1
2017-Jul-18 04:29N 40°36' W 074°01'0 0.2
2017-Jul-18 04:00N 40°35' W 074°01'0 0.0
2017-Jul-18 03:30N 40°35' W 074°01'0 0.0
2017-Jul-18 03:00N 40°35' W 074°01'0 0.0
2017-Jul-18 02:29N 40°35' W 074°01'  

Dump ship's entire track history